Yacuy, Argentina
Current Conditions -  °F | °C
As of 10:00 AM on Friday 24 Oct 2014 (Local Time) from SLYA Reporting Station
Scattered Clouds Scattered Clouds  
Wind Chill: 82°   Ceiling: Unl
Heat Index: 85°   Visibility: 6mi
Dew Point: 68°   Wind: 0mph
Humidity: 62%   Direction: NA
Pressure: 30"   Gusts: NA
Location:  22.38°S, 63.8°W
Report Text: SLYA 241300Z 00000KT 9999 SCT023 28/20 Q1016
Loading
Personal Weather Stations






























Interactive Weather Map
Tropical Storm Tracking
New forecast layout! Learn more

10-Day Weather Forecast

Advertisements
Track Severe Weather on mobile